sensor_id;sensor_type;location;lat;lon;timestamp;temperature;humidity
66835;HTU21D;53743;51.100;5.874;2023-05-27T00:00:24;13.02;67.16
66835;HTU21D;53743;51.100;5.874;2023-05-27T00:01:26;13.04;67.52
66835;HTU21D;53743;51.100;5.874;2023-05-27T00:02:27;13.02;67.62
66835;HTU21D;53743;51.100;5.874;2023-05-27T00:03:28;12.97;69.69
66835;HTU21D;53743;51.100;5.874;2023-05-27T00:04:30;12.97;67.46
66835;HTU21D;53743;51.100;5.874;2023-05-27T00:05:31;13.01;67.62
66835;HTU21D;53743;51.100;5.874;2023-05-27T00:06:32;12.97;67.82
66835;HTU21D;53743;51.100;5.874;2023-05-27T00:07:35;12.97;67.54
66835;HTU21D;53743;51.100;5.874;2023-05-27T00:08:36;12.96;68.75
66835;HTU21D;53743;51.100;5.874;2023-05-27T00:09:38;12.91;68.96
66835;HTU21D;53743;51.100;5.874;2023-05-27T00:10:39;12.94;68.61
66835;HTU21D;53743;51.100;5.874;2023-05-27T00:11:41;12.91;68.81
66835;HTU21D;53743;51.100;5.874;2023-05-27T00:12:44;12.89;69.25
66835;HTU21D;53743;51.100;5.874;2023-05-27T00:13:46;12.90;69.16
66835;HTU21D;53743;51.100;5.874;2023-05-27T00:14:47;12.87;70.03
66835;HTU21D;53743;51.100;5.874;2023-05-27T00:15:49;12.86;68.38
66835;HTU21D;53743;51.100;5.874;2023-05-27T00:16:50;12.87;68.18
66835;HTU21D;53743;51.100;5.874;2023-05-27T00:17:52;12.85;68.36
66835;HTU21D;53743;51.100;5.874;2023-05-27T00:18:54;12.82;68.45
66835;HTU21D;53743;51.100;5.874;2023-05-27T00:19:56;12.79;71.10
66835;HTU21D;53743;51.100;5.874;2023-05-27T00:20:58;12.76;68.37
66835;HTU21D;53743;51.100;5.874;2023-05-27T00:22:00;12.75;70.15
66835;HTU21D;53743;51.100;5.874;2023-05-27T00:23:01;12.77;69.01
66835;HTU21D;53743;51.100;5.874;2023-05-27T00:24:03;12.72;70.49
66835;HTU21D;53743;51.100;5.874;2023-05-27T00:25:05;12.71;69.16
66835;HTU21D;53743;51.100;5.874;2023-05-27T00:26:07;12.64;69.52
66835;HTU21D;53743;51.100;5.874;2023-05-27T00:27:09;12.62;69.70
66835;HTU21D;53743;51.100;5.874;2023-05-27T00:28:13;12.58;70.01
66835;HTU21D;53743;51.100;5.874;2023-05-27T00:29:16;12.55;70.00
66835;HTU21D;53743;51.100;5.874;2023-05-27T00:30:18;12.55;70.46
66835;HTU21D;53743;51.100;5.874;2023-05-27T00:31:19;12.56;69.23
66835;HTU21D;53743;51.100;5.874;2023-05-27T00:32:21;12.46;71.89
66835;HTU21D;53743;51.100;5.874;2023-05-27T00:33:23;12.47;70.93
66835;HTU21D;53743;51.100;5.874;2023-05-27T00:34:25;12.48;70.87
66835;HTU21D;53743;51.100;5.874;2023-05-27T00:35:26;12.46;70.75
66835;HTU21D;53743;51.100;5.874;2023-05-27T00:36:30;12.44;70.57
66835;HTU21D;53743;51.100;5.874;2023-05-27T00:37:32;12.47;70.53
66835;HTU21D;53743;51.100;5.874;2023-05-27T00:38:34;12.44;71.80
66835;HTU21D;53743;51.100;5.874;2023-05-27T00:39:35;12.41;70.89
66835;HTU21D;53743;51.100;5.874;2023-05-27T00:40:39;12.42;71.08
66835;HTU21D;53743;51.100;5.874;2023-05-27T00:41:48;12.37;71.44
66835;HTU21D;53743;51.100;5.874;2023-05-27T00:42:51;12.37;70.81
66835;HTU21D;53743;51.100;5.874;2023-05-27T00:43:55;12.37;71.10
66835;HTU21D;53743;51.100;5.874;2023-05-27T00:44:57;12.37;71.00
66835;HTU21D;53743;51.100;5.874;2023-05-27T00:45:58;12.28;72.35
66835;HTU21D;53743;51.100;5.874;2023-05-27T00:47:00;12.26;71.42
66835;HTU21D;53743;51.100;5.874;2023-05-27T00:48:03;12.23;72.03
66835;HTU21D;53743;51.100;5.874;2023-05-27T00:49:06;12.23;71.72
66835;HTU21D;53743;51.100;5.874;2023-05-27T00:50:08;12.21;73.19
66835;HTU21D;53743;51.100;5.874;2023-05-27T00:51:10;12.22;72.57
66835;HTU21D;53743;51.100;5.874;2023-05-27T00:52:12;12.25;71.75
66835;HTU21D;53743;51.100;5.874;2023-05-27T00:53:15;12.27;71.54
66835;HTU21D;53743;51.100;5.874;2023-05-27T00:54:18;12.22;71.90
66835;HTU21D;53743;51.100;5.874;2023-05-27T00:55:19;12.18;72.69
66835;HTU21D;53743;51.100;5.874;2023-05-27T00:56:22;12.22;72.37
66835;HTU21D;53743;51.100;5.874;2023-05-27T00:57:23;12.15;72.52
66835;HTU21D;53743;51.100;5.874;2023-05-27T00:58:26;12.18;72.48
66835;HTU21D;53743;51.100;5.874;2023-05-27T00:59:29;12.08;73.49
66835;HTU21D;53743;51.100;5.874;2023-05-27T01:00:31;12.15;73.60
66835;HTU21D;53743;51.100;5.874;2023-05-27T01:01:32;12.13;73.22
66835;HTU21D;53743;51.100;5.874;2023-05-27T01:02:37;12.12;73.23
66835;HTU21D;53743;51.100;5.874;2023-05-27T01:03:41;12.12;73.09
66835;HTU21D;53743;51.100;5.874;2023-05-27T01:04:44;12.07;73.54
66835;HTU21D;53743;51.100;5.874;2023-05-27T01:05:47;12.07;73.68
66835;HTU21D;53743;51.100;5.874;2023-05-27T01:07:00;12.01;74.92
66835;HTU21D;53743;51.100;5.874;2023-05-27T01:08:16;11.97;74.57
66835;HTU21D;53743;51.100;5.874;2023-05-27T01:09:33;11.93;74.33
66835;HTU21D;53743;51.100;5.874;2023-05-27T01:10:46;11.88;73.90
66835;HTU21D;53743;51.100;5.874;2023-05-27T01:11:59;11.84;74.74
66835;HTU21D;53743;51.100;5.874;2023-05-27T01:13:16;11.84;74.75
66835;HTU21D;53743;51.100;5.874;2023-05-27T01:14:23;11.79;74.54
66835;HTU21D;53743;51.100;5.874;2023-05-27T01:15:31;11.78;74.57
66835;HTU21D;53743;51.100;5.874;2023-05-27T01:16:38;11.77;75.44
66835;HTU21D;53743;51.100;5.874;2023-05-27T01:17:42;11.76;74.18
66835;HTU21D;53743;51.100;5.874;2023-05-27T01:18:49;11.76;75.35
66835;HTU21D;53743;51.100;5.874;2023-05-27T01:19:54;11.75;75.29
66835;HTU21D;53743;51.100;5.874;2023-05-27T01:21:02;11.72;75.71
66835;HTU21D;53743;51.100;5.874;2023-05-27T01:22:11;11.74;74.88
66835;HTU21D;53743;51.100;5.874;2023-05-27T01:23:16;11.70;77.11
66835;HTU21D;53743;51.100;5.874;2023-05-27T01:24:18;11.63;76.67
66835;HTU21D;53743;51.100;5.874;2023-05-27T01:25:19;11.58;77.20
66835;HTU21D;53743;51.100;5.874;2023-05-27T01:26:21;11.66;75.96
66835;HTU21D;53743;51.100;5.874;2023-05-27T01:27:22;11.68;75.97
66835;HTU21D;53743;51.100;5.874;2023-05-27T01:28:26;11.61;76.66
66835;HTU21D;53743;51.100;5.874;2023-05-27T01:29:27;11.61;77.35
66835;HTU21D;53743;51.100;5.874;2023-05-27T01:30:29;11.60;75.83
66835;HTU21D;53743;51.100;5.874;2023-05-27T01:31:41;11.57;76.63
66835;HTU21D;53743;51.100;5.874;2023-05-27T01:32:54;11.59;76.98
66835;HTU21D;53743;51.100;5.874;2023-05-27T01:34:03;11.54;76.42
66835;HTU21D;53743;51.100;5.874;2023-05-27T01:35:16;11.61;75.83
66835;HTU21D;53743;51.100;5.874;2023-05-27T01:36:26;11.61;76.24
66835;HTU21D;53743;51.100;5.874;2023-05-27T01:37:33;11.61;76.16
66835;HTU21D;53743;51.100;5.874;2023-05-27T01:38:40;11.55;76.10
66835;HTU21D;53743;51.100;5.874;2023-05-27T01:39:46;11.49;76.72
66835;HTU21D;53743;51.100;5.874;2023-05-27T01:40:51;11.46;76.44
66835;HTU21D;53743;51.100;5.874;2023-05-27T01:41:56;11.41;77.24
66835;HTU21D;53743;51.100;5.874;2023-05-27T01:43:01;11.39;77.93
66835;HTU21D;53743;51.100;5.874;2023-05-27T01:44:04;11.36;77.93
66835;HTU21D;53743;51.100;5.874;2023-05-27T01:45:08;11.34;77.95
66835;HTU21D;53743;51.100;5.874;2023-05-27T01:46:11;11.36;77.70
66835;HTU21D;53743;51.100;5.874;2023-05-27T01:47:12;11.37;77.89
66835;HTU21D;53743;51.100;5.874;2023-05-27T01:48:14;11.39;77.48
66835;HTU21D;53743;51.100;5.874;2023-05-27T01:49:15;11.41;76.90
66835;HTU21D;53743;51.100;5.874;2023-05-27T01:50:17;11.42;76.79
66835;HTU21D;53743;51.100;5.874;2023-05-27T01:51:18;11.41;77.79
66835;HTU21D;53743;51.100;5.874;2023-05-27T01:52:20;11.41;77.11
66835;HTU21D;53743;51.100;5.874;2023-05-27T01:53:21;11.42;77.93
66835;HTU21D;53743;51.100;5.874;2023-05-27T01:54:25;11.36;78.05
66835;HTU21D;53743;51.100;5.874;2023-05-27T01:55:26;11.31;77.49
66835;HTU21D;53743;51.100;5.874;2023-05-27T01:56:28;11.33;77.40
66835;HTU21D;53743;51.100;5.874;2023-05-27T01:57:30;11.28;77.89
66835;HTU21D;53743;51.100;5.874;2023-05-27T01:58:33;11.33;77.76
66835;HTU21D;53743;51.100;5.874;2023-05-27T01:59:34;11.31;77.87
66835;HTU21D;53743;51.100;5.874;2023-05-27T02:00:36;11.27;77.97
66835;HTU21D;53743;51.100;5.874;2023-05-27T02:01:37;11.20;79.08
66835;HTU21D;53743;51.100;5.874;2023-05-27T02:02:39;11.22;78.34
66835;HTU21D;53743;51.100;5.874;2023-05-27T02:03:41;11.19;78.58
66835;HTU21D;53743;51.100;5.874;2023-05-27T02:04:43;11.17;79.39
66835;HTU21D;53743;51.100;5.874;2023-05-27T02:05:44;11.19;78.71
66835;HTU21D;53743;51.100;5.874;2023-05-27T02:06:46;11.16;78.32
66835;HTU21D;53743;51.100;5.874;2023-05-27T02:07:47;11.16;78.61
66835;HTU21D;53743;51.100;5.874;2023-05-27T02:08:49;11.19;78.42
66835;HTU21D;53743;51.100;5.874;2023-05-27T02:09:51;11.20;78.74
66835;HTU21D;53743;51.100;5.874;2023-05-27T02:10:53;11.22;78.44
66835;HTU21D;53743;51.100;5.874;2023-05-27T02:11:54;11.19;79.47
66835;HTU21D;53743;51.100;5.874;2023-05-27T02:12:56;11.14;78.57
66835;HTU21D;53743;51.100;5.874;2023-05-27T02:13:58;11.11;78.60
66835;HTU21D;53743;51.100;5.874;2023-05-27T02:15:01;11.10;79.88
66835;HTU21D;53743;51.100;5.874;2023-05-27T02:16:03;11.08;78.77
66835;HTU21D;53743;51.100;5.874;2023-05-27T02:17:07;11.05;79.77
66835;HTU21D;53743;51.100;5.874;2023-05-27T02:18:09;11.01;79.12
66835;HTU21D;53743;51.100;5.874;2023-05-27T02:19:13;11.01;79.43
66835;HTU21D;53743;51.100;5.874;2023-05-27T02:20:15;10.98;79.40
66835;HTU21D;53743;51.100;5.874;2023-05-27T02:21:17;10.97;80.17
66835;HTU21D;53743;51.100;5.874;2023-05-27T02:22:18;10.99;79.39
66835;HTU21D;53743;51.100;5.874;2023-05-27T02:23:20;10.98;79.55
66835;HTU21D;53743;51.100;5.874;2023-05-27T02:24:21;10.98;79.64
66835;HTU21D;53743;51.100;5.874;2023-05-27T02:25:25;10.98;79.34
66835;HTU21D;53743;51.100;5.874;2023-05-27T02:26:26;10.96;79.64
66835;HTU21D;53743;51.100;5.874;2023-05-27T02:27:29;10.93;79.93
66835;HTU21D;53743;51.100;5.874;2023-05-27T02:28:30;10.92;79.85
66835;HTU21D;53743;51.100;5.874;2023-05-27T02:29:32;10.94;79.52
66835;HTU21D;53743;51.100;5.874;2023-05-27T02:30:33;10.83;81.84
66835;HTU21D;53743;51.100;5.874;2023-05-27T02:31:35;10.80;80.61
66835;HTU21D;53743;51.100;5.874;2023-05-27T02:32:36;10.78;81.17
66835;HTU21D;53743;51.100;5.874;2023-05-27T02:33:38;10.77;80.71
66835;HTU21D;53743;51.100;5.874;2023-05-27T02:34:39;10.72;81.06
66835;HTU21D;53743;51.100;5.874;2023-05-27T02:35:41;10.70;81.15
66835;HTU21D;53743;51.100;5.874;2023-05-27T02:36:42;10.68;81.39
66835;HTU21D;53743;51.100;5.874;2023-05-27T02:37:44;10.68;80.85
66835;HTU21D;53743;51.100;5.874;2023-05-27T02:38:45;10.67;80.36
66835;HTU21D;53743;51.100;5.874;2023-05-27T02:39:47;10.67;80.12
66835;HTU21D;53743;51.100;5.874;2023-05-27T02:40:49;10.67;80.47
66835;HTU21D;53743;51.100;5.874;2023-05-27T02:41:51;10.65;80.81
66835;HTU21D;53743;51.100;5.874;2023-05-27T02:42:52;10.65;80.58
66835;HTU21D;53743;51.100;5.874;2023-05-27T02:43:54;10.65;81.55
66835;HTU21D;53743;51.100;5.874;2023-05-27T02:44:55;10.64;81.27
66835;HTU21D;53743;51.100;5.874;2023-05-27T02:45:57;10.65;80.29
66835;HTU21D;53743;51.100;5.874;2023-05-27T02:47:00;10.62;81.76
66835;HTU21D;53743;51.100;5.874;2023-05-27T02:48:02;10.64;81.83
66835;HTU21D;53743;51.100;5.874;2023-05-27T02:49:04;10.64;81.55
66835;HTU21D;53743;51.100;5.874;2023-05-27T02:50:06;10.66;80.71
66835;HTU21D;53743;51.100;5.874;2023-05-27T02:51:08;10.66;80.30
66835;HTU21D;53743;51.100;5.874;2023-05-27T02:52:10;10.63;80.29
66835;HTU21D;53743;51.100;5.874;2023-05-27T02:53:11;10.60;81.50
66835;HTU21D;53743;51.100;5.874;2023-05-27T02:54:13;10.59;81.75
66835;HTU21D;53743;51.100;5.874;2023-05-27T02:55:14;10.60;80.79
66835;HTU21D;53743;51.100;5.874;2023-05-27T02:56:17;10.56;81.83
66835;HTU21D;53743;51.100;5.874;2023-05-27T02:57:18;10.58;80.64
66835;HTU21D;53743;51.100;5.874;2023-05-27T02:58:20;10.58;80.46
66835;HTU21D;53743;51.100;5.874;2023-05-27T02:59:21;10.56;80.60
66835;HTU21D;53743;51.100;5.874;2023-05-27T03:00:24;10.56;80.72
66835;HTU21D;53743;51.100;5.874;2023-05-27T03:01:25;10.56;80.79
66835;HTU21D;53743;51.100;5.874;2023-05-27T03:02:27;10.56;80.93
66835;HTU21D;53743;51.100;5.874;2023-05-27T03:03:28;10.54;81.43
66835;HTU21D;53743;51.100;5.874;2023-05-27T03:04:31;10.53;81.59
66835;HTU21D;53743;51.100;5.874;2023-05-27T03:05:32;10.51;81.76
66835;HTU21D;53743;51.100;5.874;2023-05-27T03:06:34;10.51;82.07
66835;HTU21D;53743;51.100;5.874;2023-05-27T03:07:36;10.45;81.75
66835;HTU21D;53743;51.100;5.874;2023-05-27T03:08:38;10.48;81.72
66835;HTU21D;53743;51.100;5.874;2023-05-27T03:09:40;10.50;80.69
66835;HTU21D;53743;51.100;5.874;2023-05-27T03:10:42;10.50;81.49
66835;HTU21D;53743;51.100;5.874;2023-05-27T03:11:45;10.52;81.28
66835;HTU21D;53743;51.100;5.874;2023-05-27T03:12:47;10.54;81.29
66835;HTU21D;53743;51.100;5.874;2023-05-27T03:13:47;10.48;81.77
66835;HTU21D;53743;51.100;5.874;2023-05-27T03:14:50;10.48;81.44
66835;HTU21D;53743;51.100;5.874;2023-05-27T03:15:51;10.43;83.32
66835;HTU21D;53743;51.100;5.874;2023-05-27T03:16:54;10.42;81.65
66835;HTU21D;53743;51.100;5.874;2023-05-27T03:17:56;10.41;81.86
66835;HTU21D;53743;51.100;5.874;2023-05-27T03:18:59;10.41;81.42
66835;HTU21D;53743;51.100;5.874;2023-05-27T03:20:01;10.42;81.24
66835;HTU21D;53743;51.100;5.874;2023-05-27T03:21:04;10.39;81.23
66835;HTU21D;53743;51.100;5.874;2023-05-27T03:22:05;10.35;83.22
66835;HTU21D;53743;51.100;5.874;2023-05-27T03:23:08;10.36;82.85
66835;HTU21D;53743;51.100;5.874;2023-05-27T03:24:09;10.33;82.96
66835;HTU21D;53743;51.100;5.874;2023-05-27T03:25:11;10.33;83.07
66835;HTU21D;53743;51.100;5.874;2023-05-27T03:26:13;10.35;81.59
66835;HTU21D;53743;51.100;5.874;2023-05-27T03:27:16;10.31;83.78
66835;HTU21D;53743;51.100;5.874;2023-05-27T03:28:19;10.31;82.84
66835;HTU21D;53743;51.100;5.874;2023-05-27T03:29:22;10.31;82.23
66835;HTU21D;53743;51.100;5.874;2023-05-27T03:30:23;10.31;81.66
66835;HTU21D;53743;51.100;5.874;2023-05-27T03:31:27;10.30;83.20
66835;HTU21D;53743;51.100;5.874;2023-05-27T03:32:35;10.27;83.58
66835;HTU21D;53743;51.100;5.874;2023-05-27T03:33:37;10.26;84.12
66835;HTU21D;53743;51.100;5.874;2023-05-27T03:34:38;10.29;82.73
66835;HTU21D;53743;51.100;5.874;2023-05-27T03:35:41;10.27;82.84
66835;HTU21D;53743;51.100;5.874;2023-05-27T03:36:43;10.30;82.16
66835;HTU21D;53743;51.100;5.874;2023-05-27T03:37:47;10.27;83.12
66835;HTU21D;53743;51.100;5.874;2023-05-27T03:38:48;10.33;82.04
66835;HTU21D;53743;51.100;5.874;2023-05-27T03:39:50;10.27;83.93
66835;HTU21D;53743;51.100;5.874;2023-05-27T03:40:51;10.23;83.27
66835;HTU21D;53743;51.100;5.874;2023-05-27T03:41:53;10.20;83.74
66835;HTU21D;53743;51.100;5.874;2023-05-27T03:42:55;10.20;83.79
66835;HTU21D;53743;51.100;5.874;2023-05-27T03:43:58;10.19;83.91
66835;HTU21D;53743;51.100;5.874;2023-05-27T03:45:00;10.19;83.81
66835;HTU21D;53743;51.100;5.874;2023-05-27T03:46:03;10.18;84.01
66835;HTU21D;53743;51.100;5.874;2023-05-27T03:47:05;10.20;83.18
66835;HTU21D;53743;51.100;5.874;2023-05-27T03:48:08;10.20;83.78
66835;HTU21D;53743;51.100;5.874;2023-05-27T03:49:11;10.20;83.11
66835;HTU21D;53743;51.100;5.874;2023-05-27T03:50:12;10.22;82.49
66835;HTU21D;53743;51.100;5.874;2023-05-27T03:51:14;10.23;82.90
66835;HTU21D;53743;51.100;5.874;2023-05-27T03:52:15;10.27;82.31
66835;HTU21D;53743;51.100;5.874;2023-05-27T03:53:17;10.29;82.13
66835;HTU21D;53743;51.100;5.874;2023-05-27T03:54:18;10.28;83.28
66835;HTU21D;53743;51.100;5.874;2023-05-27T03:55:21;10.31;82.64
66835;HTU21D;53743;51.100;5.874;2023-05-27T03:56:23;10.33;82.60
66835;HTU21D;53743;51.100;5.874;2023-05-27T03:57:25;10.31;83.23
66835;HTU21D;53743;51.100;5.874;2023-05-27T03:58:27;10.30;83.87
66835;HTU21D;53743;51.100;5.874;2023-05-27T03:59:29;10.29;83.16
66835;HTU21D;53743;51.100;5.874;2023-05-27T04:00:30;10.35;82.17
66835;HTU21D;53743;51.100;5.874;2023-05-27T04:01:33;10.34;82.48
66835;HTU21D;53743;51.100;5.874;2023-05-27T04:02:34;10.37;82.12
66835;HTU21D;53743;51.100;5.874;2023-05-27T04:03:37;10.39;82.05
66835;HTU21D;53743;51.100;5.874;2023-05-27T04:04:40;10.42;81.75
66835;HTU21D;53743;51.100;5.874;2023-05-27T04:05:42;10.45;81.89
66835;HTU21D;53743;51.100;5.874;2023-05-27T04:06:43;10.45;83.23
66835;HTU21D;53743;51.100;5.874;2023-05-27T04:07:45;10.48;81.95
66835;HTU21D;53743;51.100;5.874;2023-05-27T04:08:45;10.50;82.52
66835;HTU21D;53743;51.100;5.874;2023-05-27T04:09:47;10.54;81.99
66835;HTU21D;53743;51.100;5.874;2023-05-27T04:10:48;10.55;81.63
66835;HTU21D;53743;51.100;5.874;2023-05-27T04:11:51;10.58;81.48
66835;HTU21D;53743;51.100;5.874;2023-05-27T04:12:53;10.53;83.38
66835;HTU21D;53743;51.100;5.874;2023-05-27T04:13:56;10.56;82.11
66835;HTU21D;53743;51.100;5.874;2023-05-27T04:14:57;10.55;81.70
66835;HTU21D;53743;51.100;5.874;2023-05-27T04:15:59;10.55;82.84
66835;HTU21D;53743;51.100;5.874;2023-05-27T04:17:00;10.53;82.52
66835;HTU21D;53743;51.100;5.874;2023-05-27T04:18:02;10.58;81.32
66835;HTU21D;53743;51.100;5.874;2023-05-27T04:19:03;10.64;81.50
66835;HTU21D;53743;51.100;5.874;2023-05-27T04:20:07;10.64;81.38
66835;HTU21D;53743;51.100;5.874;2023-05-27T04:21:15;10.63;81.94
66835;HTU21D;53743;51.100;5.874;2023-05-27T04:22:18;10.64;81.23
66835;HTU21D;53743;51.100;5.874;2023-05-27T04:23:20;10.69;80.80
66835;HTU21D;53743;51.100;5.874;2023-05-27T04:24:23;10.69;81.29
66835;HTU21D;53743;51.100;5.874;2023-05-27T04:25:24;10.72;81.78
66835;HTU21D;53743;51.100;5.874;2023-05-27T04:26:38;10.75;80.37
66835;HTU21D;53743;51.100;5.874;2023-05-27T04:27:41;10.73;81.37
66835;HTU21D;53743;51.100;5.874;2023-05-27T04:28:44;10.75;80.43
66835;HTU21D;53743;51.100;5.874;2023-05-27T04:29:47;10.80;80.96
66835;HTU21D;53743;51.100;5.874;2023-05-27T04:30:51;10.80;80.75
66835;HTU21D;53743;51.100;5.874;2023-05-27T04:32:08;10.85;80.48
66835;HTU21D;53743;51.100;5.874;2023-05-27T04:33:11;10.86;80.63
66835;HTU21D;53743;51.100;5.874;2023-05-27T04:34:13;10.82;81.23
66835;HTU21D;53743;51.100;5.874;2023-05-27T04:35:16;10.85;80.54
66835;HTU21D;53743;51.100;5.874;2023-05-27T04:36:18;10.85;81.21
66835;HTU21D;53743;51.100;5.874;2023-05-27T04:37:30;10.87;80.24
66835;HTU21D;53743;51.100;5.874;2023-05-27T04:38:33;10.92;80.36
66835;HTU21D;53743;51.100;5.874;2023-05-27T04:39:38;10.89;80.23
66835;HTU21D;53743;51.100;5.874;2023-05-27T04:40:45;10.90;80.69
66835;HTU21D;53743;51.100;5.874;2023-05-27T04:41:58;10.95;80.33
66835;HTU21D;53743;51.100;5.874;2023-05-27T04:43:04;10.95;80.30
66835;HTU21D;53743;51.100;5.874;2023-05-27T04:44:07;10.99;80.28
66835;HTU21D;53743;51.100;5.874;2023-05-27T04:45:14;11.02;80.20
66835;HTU21D;53743;51.100;5.874;2023-05-27T04:46:16;11.09;80.25
66835;HTU21D;53743;51.100;5.874;2023-05-27T04:47:18;11.13;80.00
66835;HTU21D;53743;51.100;5.874;2023-05-27T04:48:21;11.12;80.18
66835;HTU21D;53743;51.100;5.874;2023-05-27T04:49:24;11.17;79.81
66835;HTU21D;53743;51.100;5.874;2023-05-27T04:50:25;11.17;80.14
66835;HTU21D;53743;51.100;5.874;2023-05-27T04:51:27;11.19;79.80
66835;HTU21D;53743;51.100;5.874;2023-05-27T04:52:28;11.28;79.24
66835;HTU21D;53743;51.100;5.874;2023-05-27T04:53:30;11.27;79.19
66835;HTU21D;53743;51.100;5.874;2023-05-27T04:54:31;11.32;78.96
66835;HTU21D;53743;51.100;5.874;2023-05-27T04:55:35;11.33;79.30
66835;HTU21D;53743;51.100;5.874;2023-05-27T04:56:37;11.34;78.90
66835;HTU21D;53743;51.100;5.874;2023-05-27T04:57:39;11.41;78.35
66835;HTU21D;53743;51.100;5.874;2023-05-27T04:58:42;11.41;78.63
66835;HTU21D;53743;51.100;5.874;2023-05-27T04:59:47;11.42;78.24
66835;HTU21D;53743;51.100;5.874;2023-05-27T05:01:01;11.46;78.40
66835;HTU21D;53743;51.100;5.874;2023-05-27T05:02:03;11.48;78.35
66835;HTU21D;53743;51.100;5.874;2023-05-27T05:03:17;11.53;78.30
66835;HTU21D;53743;51.100;5.874;2023-05-27T05:04:22;11.62;77.63
66835;HTU21D;53743;51.100;5.874;2023-05-27T05:05:29;11.62;77.85
66835;HTU21D;53743;51.100;5.874;2023-05-27T05:06:32;11.67;77.82
66835;HTU21D;53743;51.100;5.874;2023-05-27T05:07:33;11.69;77.78
66835;HTU21D;53743;51.100;5.874;2023-05-27T05:08:38;11.79;77.49
66835;HTU21D;53743;51.100;5.874;2023-05-27T05:09:40;11.93;77.59
66835;HTU21D;53743;51.100;5.874;2023-05-27T05:10:48;12.29;77.61
66835;HTU21D;53743;51.100;5.874;2023-05-27T05:11:51;12.82;76.10
66835;HTU21D;53743;51.100;5.874;2023-05-27T05:12:52;13.40;74.54
66835;HTU21D;53743;51.100;5.874;2023-05-27T05:13:55;14.07;71.00
66835;HTU21D;53743;51.100;5.874;2023-05-27T05:14:58;14.64;68.35
66835;HTU21D;53743;51.100;5.874;2023-05-27T05:16:01;15.17;66.84
66835;HTU21D;53743;51.100;5.874;2023-05-27T05:17:03;15.66;61.87
66835;HTU21D;53743;51.100;5.874;2023-05-27T05:18:05;16.06;61.63
66835;HTU21D;53743;51.100;5.874;2023-05-27T05:19:07;16.46;59.62
66835;HTU21D;53743;51.100;5.874;2023-05-27T05:20:12;16.63;59.24
66835;HTU21D;53743;51.100;5.874;2023-05-27T05:21:14;16.79;58.13
66835;HTU21D;53743;51.100;5.874;2023-05-27T05:22:16;17.04;58.53
66835;HTU21D;53743;51.100;5.874;2023-05-27T05:23:20;17.33;57.29
66835;HTU21D;53743;51.100;5.874;2023-05-27T05:24:22;17.61;56.63
66835;HTU21D;53743;51.100;5.874;2023-05-27T05:25:23;17.94;55.36
66835;HTU21D;53743;51.100;5.874;2023-05-27T05:26:27;18.33;51.38
66835;HTU21D;53743;51.100;5.874;2023-05-27T05:27:29;18.61;53.02
66835;HTU21D;53743;51.100;5.874;2023-05-27T05:28:32;18.78;52.17
66835;HTU21D;53743;51.100;5.874;2023-05-27T05:29:34;18.95;51.97
66835;HTU21D;53743;51.100;5.874;2023-05-27T05:30:37;19.16;49.92
66835;HTU21D;53743;51.100;5.874;2023-05-27T05:31:41;19.43;49.98
66835;HTU21D;53743;51.100;5.874;2023-05-27T05:32:45;19.67;45.80
66835;HTU21D;53743;51.100;5.874;2023-05-27T05:33:48;19.79;45.19
66835;HTU21D;53743;51.100;5.874;2023-05-27T05:34:49;19.86;48.43
66835;HTU21D;53743;51.100;5.874;2023-05-27T05:35:52;19.97;47.76
66835;HTU21D;53743;51.100;5.874;2023-05-27T05:36:58;20.11;47.27
66835;HTU21D;53743;51.100;5.874;2023-05-27T05:38:00;20.34;43.50
66835;HTU21D;53743;51.100;5.874;2023-05-27T05:39:01;20.51;45.86
66835;HTU21D;53743;51.100;5.874;2023-05-27T05:40:05;20.68;44.36
66835;HTU21D;53743;51.100;5.874;2023-05-27T05:41:11;20.91;41.34
66835;HTU21D;53743;51.100;5.874;2023-05-27T05:42:13;20.99;43.70
66835;HTU21D;53743;51.100;5.874;2023-05-27T05:43:14;21.04;43.31
66835;HTU21D;53743;51.100;5.874;2023-05-27T05:44:17;21.29;42.27
66835;HTU21D;53743;51.100;5.874;2023-05-27T05:45:18;21.59;42.18
66835;HTU21D;53743;51.100;5.874;2023-05-27T05:46:22;21.65;41.31
66835;HTU21D;53743;51.100;5.874;2023-05-27T05:47:24;21.47;41.58
66835;HTU21D;53743;51.100;5.874;2023-05-27T05:48:36;21.47;41.74
66835;HTU21D;53743;51.100;5.874;2023-05-27T05:49:39;21.55;41.22
66835;HTU21D;53743;51.100;5.874;2023-05-27T05:50:43;21.57;40.46
66835;HTU21D;53743;51.100;5.874;2023-05-27T05:51:44;21.55;40.39
66835;HTU21D;53743;51.100;5.874;2023-05-27T05:52:47;21.59;40.83
66835;HTU21D;53743;51.100;5.874;2023-05-27T05:53:48;21.72;39.59
66835;HTU21D;53743;51.100;5.874;2023-05-27T05:54:50;21.91;39.65
66835;HTU21D;53743;51.100;5.874;2023-05-27T05:55:51;22.10;38.65
66835;HTU21D;53743;51.100;5.874;2023-05-27T05:56:55;22.28;36.85
66835;HTU21D;53743;51.100;5.874;2023-05-27T05:57:56;22.44;37.78
66835;HTU21D;53743;51.100;5.874;2023-05-27T05:58:58;22.43;38.16
66835;HTU21D;53743;51.100;5.874;2023-05-27T06:00:02;22.25;37.80
66835;HTU21D;53743;51.100;5.874;2023-05-27T06:01:06;21.98;38.14
66835;HTU21D;53743;51.100;5.874;2023-05-27T06:02:12;21.90;39.43
66835;HTU21D;53743;51.100;5.874;2023-05-27T06:03:15;21.89;39.78
66835;HTU21D;53743;51.100;5.874;2023-05-27T06:04:20;22.02;40.03
66835;HTU21D;53743;51.100;5.874;2023-05-27T06:05:22;22.38;39.25
66835;HTU21D;53743;51.100;5.874;2023-05-27T06:06:26;22.81;35.32
66835;HTU21D;53743;51.100;5.874;2023-05-27T06:07:48;23.16;35.40
66835;HTU21D;53743;51.100;5.874;2023-05-27T06:08:49;23.27;34.86
66835;HTU21D;53743;51.100;5.874;2023-05-27T06:09:51;23.37;35.84
66835;HTU21D;53743;51.100;5.874;2023-05-27T06:10:58;23.47;33.22
66835;HTU21D;53743;51.100;5.874;2023-05-27T06:12:00;23.38;34.15
66835;HTU21D;53743;51.100;5.874;2023-05-27T06:13:05;23.39;35.01
66835;HTU21D;53743;51.100;5.874;2023-05-27T06:14:07;23.43;34.30
66835;HTU21D;53743;51.100;5.874;2023-05-27T06:15:09;23.40;34.07
66835;HTU21D;53743;51.100;5.874;2023-05-27T06:16:14;23.28;34.85
66835;HTU21D;53743;51.100;5.874;2023-05-27T06:17:17;23.15;35.24
66835;HTU21D;53743;51.100;5.874;2023-05-27T06:18:20;23.05;33.82
66835;HTU21D;53743;51.100;5.874;2023-05-27T06:19:21;22.96;34.57
66835;HTU21D;53743;51.100;5.874;2023-05-27T06:20:24;23.00;35.12
66835;HTU21D;53743;51.100;5.874;2023-05-27T06:21:26;23.01;34.53
66835;HTU21D;53743;51.100;5.874;2023-05-27T06:22:53;22.93;34.11
66835;HTU21D;53743;51.100;5.874;2023-05-27T06:24:21;22.96;35.37
66835;HTU21D;53743;51.100;5.874;2023-05-27T06:25:29;23.07;35.02
66835;HTU21D;53743;51.100;5.874;2023-05-27T06:26:34;23.32;33.76
66835;HTU21D;53743;51.100;5.874;2023-05-27T06:27:35;23.58;34.37
66835;HTU21D;53743;51.100;5.874;2023-05-27T06:28:37;23.85;34.08
66835;HTU21D;53743;51.100;5.874;2023-05-27T06:29:38;24.02;32.14
66835;HTU21D;53743;51.100;5.874;2023-05-27T06:30:41;24.10;33.31
66835;HTU21D;53743;51.100;5.874;2023-05-27T06:31:45;24.00;31.51
66835;HTU21D;53743;51.100;5.874;2023-05-27T06:32:48;23.91;32.20